createdAt,value
2019-06-25T00:01:00.298Z,25.20
2019-06-25T00:03:28.779Z,25.10
2019-06-25T00:05:57.396Z,25.10
2019-06-25T00:08:28.881Z,25.00
2019-06-25T00:10:57.321Z,25.00
2019-06-25T00:13:25.820Z,25.00
2019-06-25T00:15:54.318Z,25.00
2019-06-25T00:18:22.780Z,25.00
2019-06-25T00:20:51.212Z,25.00
2019-06-25T00:23:19.633Z,24.90
2019-06-25T00:25:48.074Z,24.80
2019-06-25T00:28:16.529Z,24.80
2019-06-25T00:30:45.881Z,24.80
2019-06-25T00:33:14.482Z,24.70
2019-06-25T00:35:42.927Z,24.70
2019-06-25T00:38:11.399Z,24.70
2019-06-25T00:40:39.946Z,24.70
2019-06-25T00:43:08.388Z,24.60
2019-06-25T00:45:36.879Z,24.50
2019-06-25T00:48:05.462Z,24.50
2019-06-25T00:50:33.894Z,24.50
2019-06-25T00:53:02.341Z,24.50
2019-06-25T00:55:30.754Z,24.40
2019-06-25T00:57:59.208Z,24.40
2019-06-25T01:00:27.693Z,24.40
2019-06-25T01:02:57.955Z,24.30
2019-06-25T01:05:26.371Z,24.30
2019-06-25T01:07:54.814Z,24.20
2019-06-25T01:10:23.221Z,24.20
2019-06-25T01:12:51.734Z,24.20
2019-06-25T01:15:20.516Z,24.20
2019-06-25T01:17:49.008Z,24.20
2019-06-25T01:20:17.980Z,24.20
2019-06-25T01:22:46.385Z,24.10
2019-06-25T01:25:15.057Z,24.00
2019-06-25T01:27:43.609Z,24.00
2019-06-25T01:30:28.118Z,24.00
2019-06-25T01:32:43.998Z,23.90
2019-06-25T01:35:13.127Z,23.90
2019-06-25T01:37:41.540Z,23.80
2019-06-25T01:40:10.312Z,23.80
2019-06-25T01:42:38.746Z,23.70
2019-06-25T01:45:08.427Z,23.70
2019-06-25T01:47:36.850Z,23.60
2019-06-25T01:50:09.412Z,23.60
2019-06-25T01:52:38.013Z,23.60
2019-06-25T01:55:07.317Z,23.60
2019-06-25T01:57:35.841Z,23.60
2019-06-25T02:00:06.498Z,23.70
2019-06-25T02:02:35.002Z,23.70
2019-06-25T02:05:05.548Z,23.60
2019-06-25T02:07:34.120Z,23.60
2019-06-25T02:10:02.666Z,23.60
2019-06-25T02:12:31.149Z,23.60
2019-06-25T02:14:59.582Z,23.50
2019-06-25T02:17:28.069Z,23.50
2019-06-25T02:19:56.520Z,23.40
2019-06-25T02:22:25.287Z,23.40
2019-06-25T02:24:53.795Z,23.40
2019-06-25T02:27:22.332Z,23.40
2019-06-25T02:29:50.766Z,23.40
2019-06-25T02:32:19.274Z,23.40
2019-06-25T02:34:47.701Z,23.30
2019-06-25T02:37:16.152Z,23.30
2019-06-25T02:39:44.581Z,23.20
2019-06-25T02:42:13.022Z,23.10
2019-06-25T02:44:41.423Z,23.00
2019-06-25T02:47:09.863Z,23.00
2019-06-25T02:49:38.304Z,23.00
2019-06-25T02:52:06.802Z,22.90
2019-06-25T02:54:35.205Z,22.90
2019-06-25T02:57:03.661Z,22.80
2019-06-25T02:59:32.082Z,22.80
2019-06-25T03:02:00.517Z,22.70
2019-06-25T03:04:29.006Z,22.70
2019-06-25T03:06:57.434Z,22.70
2019-06-25T03:09:25.872Z,22.80
2019-06-25T03:11:54.305Z,22.80
2019-06-25T03:14:22.721Z,22.90
2019-06-25T03:16:51.343Z,22.90
2019-06-25T03:19:19.775Z,22.90
2019-06-25T03:21:48.270Z,22.90
2019-06-25T03:24:16.695Z,22.90
2019-06-25T03:26:45.221Z,22.90
2019-06-25T03:29:13.638Z,22.90
2019-06-25T03:32:04.230Z,22.90
2019-06-25T03:34:12.233Z,22.90
2019-06-25T03:36:40.668Z,22.80
2019-06-25T03:39:09.985Z,22.80
2019-06-25T03:41:38.675Z,22.70
2019-06-25T03:44:07.227Z,22.60
2019-06-25T03:46:35.713Z,22.50
2019-06-25T03:49:04.247Z,22.50
2019-06-25T03:51:32.733Z,22.50
2019-06-25T03:54:01.274Z,22.50
2019-06-25T03:56:29.770Z,22.60
2019-06-25T03:58:58.199Z,22.60
2019-06-25T04:01:26.627Z,22.60
2019-06-25T04:03:55.055Z,22.60
2019-06-25T04:06:23.489Z,22.60
2019-06-25T04:08:51.928Z,22.60
2019-06-25T04:11:20.425Z,22.70
2019-06-25T04:13:48.863Z,22.60
2019-06-25T04:16:17.307Z,22.60
2019-06-25T04:18:45.889Z,22.50
2019-06-25T04:21:14.346Z,22.50
2019-06-25T04:23:42.793Z,22.60
2019-06-25T04:26:11.278Z,22.60
2019-06-25T04:28:39.722Z,22.60
2019-06-25T04:31:08.154Z,22.60
2019-06-25T04:33:36.581Z,22.60
2019-06-25T04:36:05.007Z,22.50
2019-06-25T04:38:33.446Z,22.60
2019-06-25T04:41:01.862Z,22.70
2019-06-25T04:43:30.320Z,22.70
2019-06-25T04:45:58.766Z,22.80
2019-06-25T04:48:27.288Z,22.80
2019-06-25T04:50:55.797Z,22.90
2019-06-25T04:53:24.250Z,22.90
2019-06-25T04:55:52.704Z,22.90
2019-06-25T04:58:21.150Z,23.00
2019-06-25T05:00:49.675Z,23.00
2019-06-25T05:03:19.634Z,23.00
2019-06-25T05:05:48.240Z,23.00
2019-06-25T05:08:16.669Z,23.00
2019-06-25T05:10:45.216Z,23.10
2019-06-25T05:13:13.637Z,23.10
2019-06-25T05:15:42.141Z,23.10
2019-06-25T05:18:10.706Z,23.20
2019-06-25T05:20:39.314Z,23.20
2019-06-25T05:23:07.745Z,23.30
2019-06-25T05:25:36.509Z,23.30
2019-06-25T05:28:05.672Z,23.40
2019-06-25T05:30:34.235Z,23.40
2019-06-25T05:33:05.862Z,23.40
2019-06-25T05:35:33.749Z,23.40
2019-06-25T05:38:02.244Z,23.40
2019-06-25T05:40:30.793Z,23.40
2019-06-25T05:42:59.248Z,23.50
2019-06-25T05:45:28.035Z,23.50
2019-06-25T05:47:56.476Z,23.50
2019-06-25T05:50:25.017Z,23.60
2019-06-25T05:52:53.570Z,23.70
2019-06-25T05:55:22.097Z,23.70
2019-06-25T05:57:50.546Z,23.80
2019-06-25T06:00:19.423Z,23.80
2019-06-25T06:02:47.984Z,23.90
2019-06-25T06:05:16.821Z,23.90
2019-06-25T06:07:45.293Z,23.90
2019-06-25T06:10:15.365Z,23.90
2019-06-25T06:12:44.054Z,24.00
2019-06-25T06:15:14.481Z,24.00
2019-06-25T06:17:51.932Z,24.10
2019-06-25T06:20:20.502Z,24.10
2019-06-25T06:22:49.433Z,24.20
2019-06-25T06:25:17.859Z,24.20
2019-06-25T06:27:46.575Z,24.30
2019-06-25T06:30:15.542Z,24.30
2019-06-25T06:32:44.083Z,24.40
2019-06-25T06:35:12.575Z,24.40
2019-06-25T06:37:41.110Z,24.40
2019-06-25T06:40:10.231Z,24.50
2019-06-25T06:42:38.800Z,24.50
2019-06-25T06:45:07.932Z,24.50
2019-06-25T06:47:36.600Z,24.50
2019-06-25T06:50:08.059Z,24.50
2019-06-25T06:52:36.579Z,24.50
2019-06-25T06:55:06.040Z,24.60
2019-06-25T06:57:34.597Z,24.60
2019-06-25T07:00:04.738Z,24.60
2019-06-25T07:02:33.324Z,24.60
2019-06-25T07:05:01.961Z,24.60
2019-06-25T07:07:30.469Z,24.70
2019-06-25T07:09:59.058Z,24.70
2019-06-25T07:12:27.457Z,24.80
2019-06-25T07:14:55.962Z,24.80
2019-06-25T07:17:24.653Z,24.80
2019-06-25T07:19:53.234Z,24.80
2019-06-25T07:22:21.808Z,24.90
2019-06-25T07:24:50.348Z,24.90
2019-06-25T07:27:19.245Z,24.90
2019-06-25T07:29:48.402Z,25.00
2019-06-25T07:32:17.002Z,25.00
2019-06-25T07:34:45.427Z,25.00
2019-06-25T07:37:14.434Z,25.00
2019-06-25T07:39:42.957Z,25.00
2019-06-25T07:42:11.524Z,25.00
2019-06-25T07:44:39.967Z,25.00
2019-06-25T07:47:08.477Z,25.10
2019-06-25T07:49:36.980Z,25.10
2019-06-25T07:52:05.468Z,25.10
2019-06-25T07:54:33.901Z,25.20
2019-06-25T07:57:02.628Z,25.30
2019-06-25T07:59:31.277Z,25.30
2019-06-25T08:01:59.812Z,25.30
2019-06-25T08:04:30.032Z,25.40
2019-06-25T08:06:58.697Z,25.50
2019-06-25T08:09:27.424Z,25.50
2019-06-25T08:11:55.915Z,25.60
2019-06-25T08:14:24.765Z,25.60
2019-06-25T08:16:53.345Z,25.60
2019-06-25T08:19:22.048Z,25.60
2019-06-25T08:21:50.587Z,25.70
2019-06-25T08:24:19.989Z,25.80
2019-06-25T08:26:48.583Z,25.80
2019-06-25T08:29:16.997Z,25.80
2019-06-25T08:31:45.519Z,25.90
2019-06-25T08:34:13.933Z,25.90
2019-06-25T08:36:42.421Z,25.90
2019-06-25T08:39:10.939Z,26.00
2019-06-25T08:41:39.466Z,26.00
2019-06-25T08:44:07.973Z,26.10
2019-06-25T08:46:36.436Z,26.10
2019-06-25T08:49:04.915Z,26.10
2019-06-25T08:51:33.430Z,26.20
2019-06-25T08:54:01.989Z,26.20
2019-06-25T08:56:30.564Z,26.30
2019-06-25T08:58:59.071Z,26.30
2019-06-25T09:01:27.520Z,26.30
2019-06-25T09:03:55.962Z,26.40
2019-06-25T09:06:24.414Z,26.40
2019-06-25T09:08:52.992Z,26.40
2019-06-25T09:11:21.508Z,26.40
2019-06-25T09:13:49.913Z,26.50
2019-06-25T09:16:18.349Z,26.60
2019-06-25T09:18:46.885Z,26.60
2019-06-25T09:21:15.298Z,26.70
2019-06-25T09:23:44.581Z,26.70
2019-06-25T09:26:13.025Z,26.80
2019-06-25T09:28:41.536Z,26.80
2019-06-25T09:31:10.027Z,26.80
2019-06-25T09:33:38.482Z,26.90
2019-06-25T09:36:07.150Z,26.90
2019-06-25T09:38:35.588Z,27.00
2019-06-25T09:41:02.968Z,27.00
2019-06-25T09:43:30.334Z,27.10
2019-06-25T09:45:59.209Z,27.10
2019-06-25T09:48:27.730Z,27.20
2019-06-25T09:50:56.575Z,27.30
2019-06-25T09:53:25.035Z,27.30
2019-06-25T09:55:53.594Z,27.40
2019-06-25T09:58:22.036Z,27.40
2019-06-25T10:00:58.635Z,27.50
2019-06-25T10:03:27.085Z,27.50
2019-06-25T10:05:56.055Z,27.60
2019-06-25T10:08:24.654Z,27.70
2019-06-25T10:10:53.161Z,27.80
2019-06-25T10:13:21.675Z,27.80
2019-06-25T10:15:50.113Z,27.90
2019-06-25T10:18:18.614Z,27.90
2019-06-25T10:20:47.125Z,28.00
2019-06-25T10:23:15.732Z,28.10
2019-06-25T10:25:44.157Z,28.20
2019-06-25T10:28:25.758Z,28.20
2019-06-25T10:30:55.645Z,28.30
2019-06-25T10:33:24.558Z,28.40
2019-06-25T10:35:53.088Z,28.40
2019-06-25T10:38:22.552Z,28.50
2019-06-25T10:40:51.164Z,28.50
2019-06-25T10:43:19.692Z,28.60
2019-06-25T10:45:48.188Z,28.70
2019-06-25T10:48:16.703Z,28.80
2019-06-25T10:50:45.154Z,28.90
2019-06-25T10:53:13.621Z,29.00
2019-06-25T10:55:42.192Z,29.10
2019-06-25T10:58:10.781Z,29.20
2019-06-25T11:00:53.632Z,29.20
2019-06-25T11:03:22.500Z,29.30
2019-06-25T11:06:04.101Z,29.40
2019-06-25T11:08:21.543Z,29.50
2019-06-25T11:10:50.066Z,29.60
2019-06-25T11:13:18.924Z,29.70
2019-06-25T11:15:47.737Z,29.80
2019-06-25T11:18:16.146Z,29.90
2019-06-25T11:20:44.656Z,30.00
2019-06-25T11:23:13.249Z,30.10
2019-06-25T11:25:41.793Z,30.20
2019-06-25T11:28:10.303Z,30.30
2019-06-25T11:30:38.778Z,30.50
2019-06-25T11:33:07.285Z,30.60
2019-06-25T11:35:35.813Z,30.70
2019-06-25T11:38:04.309Z,30.80
2019-06-25T11:40:37.906Z,30.90
2019-06-25T11:43:08.840Z,31.00
2019-06-25T11:45:37.286Z,31.10
2019-06-25T11:48:06.283Z,31.20
2019-06-25T11:50:35.017Z,31.30
2019-06-25T11:53:03.601Z,31.40
2019-06-25T11:55:32.277Z,31.40
2019-06-25T11:58:00.906Z,31.50
2019-06-25T12:00:29.997Z,31.60
2019-06-25T12:02:58.558Z,31.60
2019-06-25T12:05:27.137Z,31.70
2019-06-25T12:07:55.633Z,31.70
2019-06-25T12:10:24.737Z,31.90
2019-06-25T12:12:53.206Z,32.00
2019-06-25T12:15:21.757Z,32.10
2019-06-25T12:17:50.192Z,32.20
2019-06-25T12:20:19.153Z,32.30
2019-06-25T12:22:47.583Z,32.40
2019-06-25T12:25:16.129Z,32.50
2019-06-25T12:27:44.638Z,32.50
2019-06-25T12:30:13.553Z,32.60
2019-06-25T12:32:42.014Z,32.70
2019-06-25T12:35:11.150Z,32.80
2019-06-25T12:37:39.662Z,32.80
2019-06-25T12:40:09.168Z,32.80
2019-06-25T12:42:37.609Z,33.00
2019-06-25T12:45:08.155Z,33.00
2019-06-25T12:47:36.866Z,33.00
2019-06-25T12:50:07.251Z,33.10
2019-06-25T12:52:35.777Z,33.20
2019-06-25T12:55:04.958Z,33.30
2019-06-25T12:57:33.428Z,33.30
2019-06-25T13:00:01.867Z,33.40
2019-06-25T13:02:30.471Z,33.50
2019-06-25T13:04:58.989Z,33.60
2019-06-25T13:07:27.471Z,33.70
2019-06-25T13:09:56.143Z,33.80
2019-06-25T13:12:24.646Z,33.90
2019-06-25T13:14:53.083Z,34.00
2019-06-25T13:17:21.662Z,34.00
2019-06-25T13:19:50.163Z,34.10
2019-06-25T13:22:18.629Z,34.30
2019-06-25T13:24:50.750Z,34.40
2019-06-25T13:27:17.417Z,34.40
2019-06-25T13:29:45.966Z,34.50
2019-06-25T13:32:14.391Z,34.50
2019-06-25T13:34:44.729Z,34.60
2019-06-25T13:37:13.429Z,34.60
2019-06-25T13:39:41.982Z,34.60
2019-06-25T13:42:10.489Z,34.70
2019-06-25T13:44:39.973Z,34.70
2019-06-25T13:47:08.760Z,34.80
2019-06-25T13:49:37.233Z,34.80
2019-06-25T13:52:05.810Z,34.80
2019-06-25T13:54:34.253Z,34.80
2019-06-25T13:57:02.827Z,34.80
2019-06-25T13:59:31.346Z,34.90
2019-06-25T14:01:59.848Z,35.00
2019-06-25T14:04:28.299Z,35.10
2019-06-25T14:06:56.860Z,35.20
2019-06-25T14:09:25.463Z,35.20
2019-06-25T14:11:53.965Z,35.30
2019-06-25T14:14:22.435Z,35.30
2019-06-25T14:16:50.851Z,35.30
2019-06-25T14:19:19.362Z,35.30
2019-06-25T14:21:47.816Z,35.40
2019-06-25T14:24:16.316Z,35.40
2019-06-25T14:26:44.741Z,35.60
2019-06-25T14:29:13.277Z,35.60
2019-06-25T14:31:41.710Z,35.70
2019-06-25T14:34:10.313Z,35.80
2019-06-25T14:36:38.953Z,35.90
2019-06-25T14:39:07.417Z,35.90
2019-06-25T14:41:35.850Z,35.80
2019-06-25T14:44:04.552Z,35.90
2019-06-25T14:46:33.225Z,35.90
2019-06-25T14:49:01.764Z,35.90
2019-06-25T14:51:30.340Z,35.90
2019-06-25T14:53:58.906Z,35.90
2019-06-25T14:56:27.442Z,35.90
2019-06-25T14:58:55.931Z,35.90
2019-06-25T15:01:24.438Z,35.80
2019-06-25T15:03:52.885Z,35.80
2019-06-25T15:06:21.342Z,35.70
2019-06-25T15:08:49.752Z,35.60
2019-06-25T15:11:18.409Z,35.50
2019-06-25T15:13:47.002Z,35.50
2019-06-25T15:16:15.568Z,35.40
2019-06-25T15:18:44.004Z,35.40
2019-06-25T15:21:12.512Z,35.30
2019-06-25T15:23:41.030Z,35.30
2019-06-25T15:26:09.607Z,35.40
2019-06-25T15:28:38.045Z,35.40
2019-06-25T15:31:06.473Z,35.40
2019-06-25T15:33:34.900Z,35.40
2019-06-25T15:36:03.427Z,35.40
2019-06-25T15:38:46.216Z,35.30
2019-06-25T15:41:02.193Z,35.30
2019-06-25T15:43:32.454Z,35.30
2019-06-25T15:46:00.857Z,35.30
2019-06-25T15:48:29.296Z,35.20
2019-06-25T15:50:57.806Z,35.20
2019-06-25T15:53:26.410Z,35.30
2019-06-25T15:55:54.914Z,35.30
2019-06-25T15:58:23.361Z,35.30
2019-06-25T16:00:51.839Z,35.30
2019-06-25T16:03:20.331Z,35.30
2019-06-25T16:05:48.772Z,35.30
2019-06-25T16:08:17.214Z,35.30
2019-06-25T16:10:45.641Z,35.40
2019-06-25T16:13:14.184Z,35.40
2019-06-25T16:15:42.681Z,35.40
2019-06-25T16:18:11.154Z,35.40
2019-06-25T16:20:39.762Z,35.40
2019-06-25T16:23:09.810Z,35.30
2019-06-25T16:25:38.402Z,35.30
2019-06-25T16:28:06.951Z,35.40
2019-06-25T16:30:35.454Z,35.30
2019-06-25T16:33:03.987Z,35.30
2019-06-25T16:35:32.519Z,35.20
2019-06-25T16:38:01.030Z,35.20
2019-06-25T16:40:29.516Z,35.10
2019-06-25T16:42:57.977Z,35.10
2019-06-25T16:45:26.412Z,35.10
2019-06-25T16:47:54.889Z,35.00
2019-06-25T16:50:23.303Z,35.00
2019-06-25T16:52:51.865Z,34.90
2019-06-25T16:55:20.319Z,34.90
2019-06-25T16:57:48.748Z,34.80
2019-06-25T17:00:18.593Z,34.70
2019-06-25T17:02:54.013Z,34.70
2019-06-25T17:05:30.602Z,34.70
2019-06-25T17:07:47.429Z,34.70
2019-06-25T17:10:17.022Z,34.60
2019-06-25T17:12:45.456Z,34.60
2019-06-25T17:15:14.061Z,34.50
2019-06-25T17:17:42.618Z,34.50
2019-06-25T17:20:11.316Z,34.50
2019-06-25T17:22:39.763Z,34.30
2019-06-25T17:25:08.669Z,34.30
2019-06-25T17:27:49.438Z,34.20
2019-06-25T17:30:07.733Z,34.10
2019-06-25T17:32:36.366Z,34.00
2019-06-25T17:35:06.821Z,33.90
2019-06-25T17:37:35.553Z,33.90
2019-06-25T17:40:07.156Z,33.80
2019-06-25T17:42:35.808Z,33.80
2019-06-25T17:45:06.784Z,33.60
2019-06-25T17:47:35.398Z,33.60
2019-06-25T17:50:05.424Z,33.50
2019-06-25T17:52:33.995Z,33.40
2019-06-25T17:55:02.628Z,33.40
2019-06-25T17:57:31.138Z,33.30
2019-06-25T17:59:59.684Z,33.30
2019-06-25T18:02:28.741Z,33.20
2019-06-25T18:04:57.192Z,33.20
2019-06-25T18:07:25.630Z,33.20
2019-06-25T18:10:07.215Z,33.10
2019-06-25T18:12:24.291Z,33.00
2019-06-25T18:14:52.809Z,33.00
2019-06-25T18:17:21.346Z,33.00
2019-06-25T18:19:49.823Z,32.90
2019-06-25T18:22:18.325Z,32.90
2019-06-25T18:24:46.735Z,32.90
2019-06-25T18:27:15.311Z,32.80
2019-06-25T18:29:43.741Z,32.80
2019-06-25T18:32:12.366Z,32.70
2019-06-25T18:34:40.924Z,32.70
2019-06-25T18:37:09.349Z,32.60
2019-06-25T18:39:37.783Z,32.60
2019-06-25T18:42:06.497Z,32.50
2019-06-25T18:44:35.001Z,32.50
2019-06-25T18:47:03.481Z,32.40
2019-06-25T18:49:32.001Z,32.40
2019-06-25T18:52:00.556Z,32.30
2019-06-25T18:54:29.149Z,32.30
2019-06-25T18:56:57.809Z,32.20
2019-06-25T18:59:26.213Z,32.10
2019-06-25T19:01:54.689Z,32.10
2019-06-25T19:04:23.135Z,32.00
2019-06-25T19:06:51.619Z,31.90
2019-06-25T19:09:20.102Z,31.90
2019-06-25T19:11:48.584Z,31.80
2019-06-25T19:14:17.010Z,31.70
2019-06-25T19:16:45.500Z,31.70
2019-06-25T19:19:14.097Z,31.60
2019-06-25T19:21:42.718Z,31.50
2019-06-25T19:24:11.135Z,31.40
2019-06-25T19:26:39.865Z,31.40
2019-06-25T19:29:08.297Z,31.30
2019-06-25T19:31:36.916Z,31.30
2019-06-25T19:34:05.481Z,31.20
2019-06-25T19:36:33.913Z,31.10
2019-06-25T19:39:02.575Z,31.10
2019-06-25T19:41:31.089Z,31.10
2019-06-25T19:43:59.542Z,31.00
2019-06-25T19:46:27.950Z,31.00
2019-06-25T19:48:56.429Z,30.90
2019-06-25T19:51:24.908Z,30.90
2019-06-25T19:53:53.437Z,30.80
2019-06-25T19:56:21.933Z,30.70
2019-06-25T19:58:50.475Z,30.70
2019-06-25T20:01:18.965Z,30.60
2019-06-25T20:03:47.614Z,30.60
2019-06-25T20:06:16.034Z,30.50
2019-06-25T20:08:44.619Z,30.50
2019-06-25T20:11:13.591Z,30.40
2019-06-25T20:13:42.580Z,30.30
2019-06-25T20:16:11.054Z,30.30
2019-06-25T20:18:39.497Z,30.20
2019-06-25T20:21:08.013Z,30.20
2019-06-25T20:23:36.617Z,30.20
2019-06-25T20:26:05.300Z,30.10
2019-06-25T20:28:33.784Z,30.10
2019-06-25T20:31:02.284Z,30.10
2019-06-25T20:33:30.802Z,30.00
2019-06-25T20:35:59.394Z,30.00
2019-06-25T20:38:27.918Z,30.00
2019-06-25T20:40:56.355Z,29.90
2019-06-25T20:43:24.989Z,29.90
2019-06-25T20:45:53.482Z,29.80
2019-06-25T20:48:22.004Z,29.80
2019-06-25T20:50:50.639Z,29.70
2019-06-25T20:53:19.354Z,29.70
2019-06-25T20:55:47.837Z,29.60
2019-06-25T20:58:16.362Z,29.60
2019-06-25T21:00:44.863Z,29.50
2019-06-25T21:03:13.442Z,29.50
2019-06-25T21:05:41.894Z,29.40
2019-06-25T21:08:10.463Z,29.40
2019-06-25T21:10:38.944Z,29.30
2019-06-25T21:13:07.435Z,29.30
2019-06-25T21:15:36.109Z,29.30
2019-06-25T21:18:04.803Z,29.20
2019-06-25T21:20:33.360Z,29.20
2019-06-25T21:23:03.088Z,29.20
2019-06-25T21:25:31.614Z,29.10
2019-06-25T21:28:00.137Z,29.10
2019-06-25T21:30:28.654Z,29.00
2019-06-25T21:32:57.100Z,29.00
2019-06-25T21:35:25.547Z,28.90
2019-06-25T21:37:54.028Z,28.90
2019-06-25T21:40:22.505Z,28.80
2019-06-25T21:42:50.950Z,28.70
2019-06-25T21:45:19.518Z,28.60
2019-06-25T21:47:47.928Z,28.50
2019-06-25T21:50:16.998Z,28.40
2019-06-25T21:52:45.533Z,28.30
2019-06-25T21:55:17.456Z,28.20
2019-06-25T21:57:44.590Z,28.30
2019-06-25T22:00:15.505Z,28.20
2019-06-25T22:02:45.663Z,28.20
2019-06-25T22:05:14.422Z,28.10
2019-06-25T22:07:42.878Z,28.00
2019-06-25T22:10:11.975Z,28.10
2019-06-25T22:12:40.491Z,28.00
2019-06-25T22:15:09.142Z,27.90
2019-06-25T22:17:38.404Z,27.80
2019-06-25T22:20:08.141Z,27.80
2019-06-25T22:22:36.893Z,27.80
2019-06-25T22:25:06.857Z,27.80
2019-06-25T22:27:35.364Z,27.80
2019-06-25T22:30:05.672Z,27.80
2019-06-25T22:32:34.109Z,27.80
2019-06-25T22:35:02.723Z,27.80
2019-06-25T22:37:31.170Z,27.80
2019-06-25T22:39:59.605Z,27.80
2019-06-25T22:42:37.165Z,27.70
2019-06-25T22:44:58.365Z,27.70
2019-06-25T22:47:26.810Z,27.70
2019-06-25T22:49:55.243Z,27.70
2019-06-25T22:52:23.765Z,27.70
2019-06-25T22:54:52.184Z,27.60
2019-06-25T22:57:20.637Z,27.70
2019-06-25T22:59:49.165Z,27.70
2019-06-25T23:02:17.662Z,27.60
2019-06-25T23:04:46.369Z,27.50
2019-06-25T23:07:14.980Z,27.40
2019-06-25T23:09:43.409Z,27.40
2019-06-25T23:12:11.838Z,27.30
2019-06-25T23:14:40.281Z,27.20
2019-06-25T23:17:08.767Z,27.20
2019-06-25T23:19:37.270Z,27.20
2019-06-25T23:22:05.778Z,27.10
2019-06-25T23:24:34.288Z,27.00
2019-06-25T23:27:02.690Z,26.90
2019-06-25T23:29:31.120Z,26.70
2019-06-25T23:31:59.553Z,26.70
2019-06-25T23:34:28.152Z,26.80
2019-06-25T23:36:56.725Z,26.80
2019-06-25T23:39:25.185Z,26.90
2019-06-25T23:41:53.617Z,27.00
2019-06-25T23:44:22.060Z,27.00
2019-06-25T23:46:50.511Z,27.00
2019-06-25T23:49:18.987Z,27.00
2019-06-25T23:51:47.439Z,26.90
2019-06-25T23:54:15.899Z,27.00
2019-06-25T23:56:44.371Z,26.90
2019-06-25T23:59:12.910Z,27.00
